Baker, Nevada
Current Conditions -  °F | °C
As of 12:53 PM on Monday 22 Dec 2014 (Local Time) from KELY Reporting Station
Light Rain Light Rain  
Wind Chill: 39°   Ceiling: 3100
Heat Index: 45°   Visibility: 10mi
Dew Point: 37°   Wind: 12mph
Humidity: 74%   Direction: 350°N
Pressure: 30.12"   Gusts: 22mph
Location:  39.01°N, 114.13°W
Report Text: KELY 222053Z AUTO 35010G19KT 10SM -RA BKN031 OVC041 07/03 A3012 RMK AO2 PK WND 31026/2018 RAB11 SLP162 P0000 60000 T00720028 55008
Loading
Personal Weather Stations






























Interactive Weather Map New forecast layout! Learn more

10-Day Weather Forecast

Advertisements
Track Severe Weather on mobile